createdAt,value
2022-08-22T00:02:44.825Z,58.45
2022-08-22T00:02:56.363Z,63.68
2022-08-22T00:03:07.585Z,64.59
2022-08-22T00:03:09.860Z,64.39
2022-08-22T04:30:48.314Z,81.98
2022-08-22T04:31:48.268Z,82.28
2022-08-22T04:32:48.249Z,82.18
2022-08-22T04:33:48.239Z,82.08
2022-08-22T04:34:48.248Z,82.18
2022-08-22T04:35:48.294Z,81.37
2022-08-22T04:36:48.215Z,81.62
2022-08-22T04:37:48.197Z,82.12
2022-08-22T04:38:48.227Z,81.98
2022-08-22T04:39:48.284Z,82.12
2022-08-22T04:40:48.177Z,82.08
2022-08-22T04:41:48.153Z,82.39
2022-08-22T04:42:48.152Z,82.83
2022-08-22T04:43:48.158Z,83.09
2022-08-22T04:44:48.133Z,82.42
2022-08-22T04:45:48.130Z,82.99
2022-08-22T04:46:48.094Z,82.49
2022-08-22T04:47:54.065Z,81.98
2022-08-22T04:48:48.096Z,82.28
2022-08-22T04:49:48.068Z,82.99
2022-08-22T04:50:48.078Z,83.29
2022-08-22T04:51:48.054Z,82.79
2022-08-22T04:52:48.049Z,82.69
2022-08-22T04:53:48.034Z,82.49
2022-08-22T04:54:48.009Z,82.18
2022-08-22T04:55:48.031Z,81.98
2022-08-22T04:56:47.995Z,82.18
2022-08-22T04:57:47.981Z,82.18
2022-08-22T04:58:47.988Z,82.28
2022-08-22T04:59:47.961Z,81.88
2022-08-22T05:00:47.953Z,81.98
2022-08-22T05:01:47.971Z,82.08
2022-08-22T05:02:48.258Z,81.98
2022-08-22T05:03:47.937Z,81.88
2022-08-22T05:04:47.902Z,81.78
2022-08-22T05:05:47.921Z,81.88
2022-08-22T05:06:47.884Z,82.99
2022-08-22T05:07:47.866Z,82.08
2022-08-22T05:08:48.458Z,82.08
2022-08-22T05:09:48.845Z,82.08
2022-08-22T05:10:47.837Z,82.35
2022-08-22T05:11:47.843Z,82.35
2022-08-22T05:12:47.822Z,83.29
2022-08-22T05:13:47.832Z,82.24
2022-08-22T05:14:48.326Z,82.55
2022-08-22T05:15:47.781Z,82.35
2022-08-22T05:16:47.788Z,82.35
2022-08-22T05:17:47.781Z,82.95
2022-08-22T05:18:47.749Z,83.15
2022-08-22T05:19:47.759Z,83.26
2022-08-22T05:20:47.729Z,82.45
2022-08-22T05:21:47.719Z,83.15
2022-08-22T05:22:47.729Z,82.24
2022-08-22T05:23:47.699Z,81.64
2022-08-22T05:24:47.688Z,80.93
2022-08-22T05:25:47.702Z,81.23
2022-08-22T05:26:47.665Z,81.64
2022-08-22T05:27:47.658Z,82.10
2022-08-22T05:28:52.527Z,81.70
2022-08-22T05:29:48.648Z,81.60
2022-08-22T05:30:47.624Z,81.50
2022-08-22T05:31:47.652Z,82.21
2022-08-22T05:32:47.619Z,81.10
2022-08-22T05:33:47.593Z,81.40
2022-08-22T05:34:47.579Z,81.50
2022-08-22T05:35:50.794Z,80.79
2022-08-22T05:36:47.557Z,80.99
2022-08-22T05:37:47.556Z,81.40
2022-08-22T05:38:47.552Z,81.20
2022-08-22T05:39:47.607Z,80.90
2022-08-22T05:40:47.515Z,80.69
2022-08-22T05:41:47.515Z,80.79
2022-08-22T05:42:47.500Z,80.85
2022-08-22T05:43:47.478Z,80.85
2022-08-22T05:44:47.486Z,81.16
2022-08-22T05:45:47.467Z,80.76
2022-08-22T05:46:47.464Z,81.36
2022-08-22T05:47:47.434Z,81.26
2022-08-22T05:48:47.431Z,81.56
2022-08-22T05:49:47.413Z,81.26
2022-08-22T05:50:50.817Z,81.16
2022-08-22T05:51:47.428Z,81.26
2022-08-22T05:52:47.382Z,80.85
2022-08-22T05:53:47.375Z,80.31
2022-08-22T05:54:47.362Z,80.31
2022-08-22T05:55:47.345Z,79.91
2022-08-22T05:56:47.340Z,80.31
2022-08-22T05:57:47.350Z,80.11
2022-08-22T05:58:47.321Z,80.07
2022-08-22T05:59:47.314Z,79.71
2022-08-22T06:00:47.295Z,80.31
2022-08-22T06:01:47.313Z,80.21
2022-08-22T06:02:47.330Z,80.01
2022-08-22T06:03:47.740Z,80.41
2022-08-22T06:04:47.315Z,80.31
2022-08-22T06:05:47.263Z,79.97
2022-08-22T06:06:47.235Z,79.77
2022-08-22T06:07:47.244Z,78.86
2022-08-22T06:08:47.241Z,79.16
2022-08-22T06:09:47.209Z,79.47
2022-08-22T06:10:48.318Z,79.16
2022-08-22T06:11:51.572Z,79.13
2022-08-22T06:12:47.175Z,78.96
2022-08-22T06:13:47.392Z,79.03
2022-08-22T06:14:47.174Z,78.63
2022-08-22T06:15:48.143Z,78.72
2022-08-22T06:16:47.685Z,78.49
2022-08-22T06:17:47.127Z,79.19
2022-08-22T06:18:47.110Z,78.99
2022-08-22T06:19:47.142Z,78.35
2022-08-22T06:20:47.085Z,78.05
2022-08-22T06:21:47.093Z,76.64
2022-08-22T06:22:47.085Z,76.64
2022-08-22T06:23:47.055Z,76.10
2022-08-22T06:24:47.043Z,76.30
2022-08-22T06:25:47.055Z,76.06
2022-08-22T06:26:48.797Z,76.46
2022-08-22T06:27:47.009Z,76.26
2022-08-22T06:28:55.002Z,76.16
2022-08-22T06:29:48.025Z,75.12
2022-08-22T06:30:46.988Z,74.38
2022-08-22T06:31:46.959Z,73.51
2022-08-22T06:33:00.191Z,73.58
2022-08-22T06:33:47.961Z,73.78
2022-08-22T06:34:46.928Z,73.88
2022-08-22T06:35:47.840Z,73.07
2022-08-22T06:36:46.926Z,73.18
2022-08-22T06:37:46.897Z,73.07
2022-08-22T06:38:46.901Z,73.07
2022-08-22T06:39:46.914Z,72.87
2022-08-22T06:40:46.878Z,73.38
2022-08-22T06:41:46.851Z,73.04
2022-08-22T06:42:46.846Z,73.14
2022-08-22T06:43:46.838Z,72.94
2022-08-22T06:44:46.845Z,72.13
2022-08-22T06:45:46.828Z,71.94
2022-08-22T06:46:46.822Z,72.30
2022-08-22T06:48:00.648Z,72.17
2022-08-22T06:48:47.826Z,71.66
2022-08-22T06:49:46.770Z,71.83
2022-08-22T06:50:46.791Z,71.00
2022-08-22T06:51:46.747Z,70.89
2022-08-22T06:52:46.759Z,70.56
2022-08-22T06:53:48.147Z,70.16
2022-08-22T06:54:46.753Z,69.35
2022-08-22T06:55:46.700Z,69.35
2022-08-22T06:56:46.708Z,69.82
2022-08-22T06:57:46.682Z,69.26
2022-08-22T06:58:46.674Z,69.46
2022-08-22T06:59:46.683Z,70.26
2022-08-22T07:00:52.424Z,69.82
2022-08-22T07:01:47.697Z,68.82
2022-08-22T07:02:46.655Z,68.39
2022-08-22T07:03:46.699Z,68.29
2022-08-22T07:04:46.613Z,68.49
2022-08-22T07:05:46.602Z,67.89
2022-08-22T07:06:46.613Z,68.16
2022-08-22T07:07:46.611Z,68.76
2022-08-22T07:08:46.566Z,67.52
2022-08-22T07:09:46.555Z,66.63
2022-08-22T07:10:46.554Z,66.42
2022-08-22T07:11:46.549Z,66.39
2022-08-22T07:12:46.521Z,66.29
2022-08-22T07:13:46.636Z,66.49
2022-08-22T07:14:46.511Z,66.16
2022-08-22T07:15:46.495Z,66.66
2022-08-22T07:16:46.488Z,65.39
2022-08-22T07:17:46.470Z,65.69
2022-08-22T07:18:46.453Z,65.69
2022-08-22T07:19:46.449Z,66.22
2022-08-22T07:20:46.745Z,66.22
2022-08-22T07:21:46.445Z,66.32
2022-08-22T07:22:46.413Z,67.13
2022-08-22T07:23:46.493Z,67.72
2022-08-22T07:24:46.402Z,66.52
2022-08-22T07:25:47.332Z,67.76
2022-08-22T07:26:46.383Z,67.96
2022-08-22T07:27:48.985Z,67.66
2022-08-22T07:28:51.166Z,67.86
2022-08-22T07:29:47.342Z,67.89
2022-08-22T07:30:46.350Z,67.86
2022-08-22T07:31:46.333Z,67.66
2022-08-22T07:32:46.315Z,67.22
2022-08-22T07:33:46.299Z,66.79
2022-08-22T07:34:46.288Z,66.49
2022-08-22T07:35:53.190Z,65.89
2022-08-22T07:36:47.260Z,66.19
2022-08-22T07:37:46.254Z,66.56
2022-08-22T07:38:46.288Z,65.56
2022-08-22T07:39:46.286Z,65.93
2022-08-22T07:40:46.223Z,65.03
2022-08-22T07:41:46.206Z,66.23
2022-08-22T07:42:46.227Z,65.13
2022-08-22T07:43:46.193Z,65.30
2022-08-22T07:44:46.178Z,65.37
2022-08-22T07:45:46.172Z,65.00
2022-08-22T07:46:46.157Z,64.70
2022-08-22T07:47:49.642Z,65.07
2022-08-22T07:49:07.694Z,65.07
2022-08-22T07:49:49.898Z,65.04
2022-08-22T07:50:46.156Z,64.64
2022-08-22T07:51:46.110Z,63.61
2022-08-22T07:52:46.107Z,63.51
2022-08-22T07:53:46.079Z,63.41
2022-08-22T07:54:46.093Z,63.18
2022-08-22T07:55:49.778Z,63.18
2022-08-22T07:56:46.084Z,62.88
2022-08-22T07:57:46.058Z,62.85
2022-08-22T07:58:46.026Z,62.02
2022-08-22T07:59:46.017Z,63.32
2022-08-22T08:00:46.003Z,62.29
2022-08-22T08:01:46.023Z,61.69
2022-08-22T08:02:45.995Z,61.00
2022-08-22T08:03:45.995Z,61.30
2022-08-22T08:04:45.975Z,61.69
2022-08-22T08:05:45.977Z,60.87
2022-08-22T08:06:45.959Z,59.98
2022-08-22T08:07:45.945Z,59.68
2022-08-22T08:08:45.923Z,60.55
2022-08-22T08:09:45.926Z,59.42
2022-08-22T08:10:45.902Z,59.45
2022-08-22T08:11:45.893Z,59.65
2022-08-22T08:12:57.895Z,59.21
2022-08-22T08:13:46.871Z,60.00
2022-08-22T08:14:45.851Z,61.13
2022-08-22T08:15:45.856Z,60.83
2022-08-22T08:16:45.847Z,61.23
2022-08-22T08:17:45.850Z,62.02
2022-08-22T08:18:45.816Z,61.46
2022-08-22T08:19:45.812Z,61.88
2022-08-22T08:20:45.793Z,61.19
2022-08-22T08:21:45.816Z,61.99
2022-08-22T08:22:45.764Z,61.46
2022-08-22T08:23:45.782Z,61.39
2022-08-22T08:24:45.858Z,61.29
2022-08-22T08:25:45.748Z,61.36
2022-08-22T08:26:45.736Z,62.18
2022-08-22T08:27:45.728Z,62.78
2022-08-22T08:28:45.717Z,61.69
2022-08-22T08:29:45.696Z,61.39
2022-08-22T08:30:45.685Z,61.29
2022-08-22T08:31:45.694Z,61.49
2022-08-22T08:32:45.662Z,61.88
2022-08-22T08:33:45.660Z,61.39
2022-08-22T08:34:45.645Z,61.58
2022-08-22T08:36:02.532Z,61.49
2022-08-22T08:36:46.667Z,61.69
2022-08-22T08:37:45.608Z,61.41
2022-08-22T08:38:45.596Z,61.39
2022-08-22T08:39:45.674Z,61.39
2022-08-22T08:40:45.595Z,61.25
2022-08-22T08:41:45.568Z,61.25
2022-08-22T08:42:45.591Z,61.23
2022-08-22T08:43:45.540Z,61.40
2022-08-22T08:44:45.543Z,59.68
2022-08-22T08:45:45.519Z,58.78
2022-08-22T08:46:55.124Z,58.73
2022-08-22T08:47:46.506Z,57.04
2022-08-22T08:48:45.517Z,58.03
2022-08-22T08:49:45.481Z,57.01
2022-08-22T08:50:46.491Z,56.88
2022-08-22T08:51:45.460Z,57.28
2022-08-22T08:52:45.455Z,56.85
2022-08-22T08:53:45.443Z,55.66
2022-08-22T08:54:45.447Z,56.04
2022-08-22T08:55:45.412Z,55.94
2022-08-22T08:56:47.213Z,56.04
2022-08-22T08:57:45.398Z,55.32
2022-08-22T08:58:45.400Z,55.41
2022-08-22T08:59:45.407Z,55.41
2022-08-22T09:00:45.535Z,56.28
2022-08-22T09:01:45.414Z,55.96
2022-08-22T09:02:45.342Z,54.64
2022-08-22T09:03:45.334Z,53.85
2022-08-22T09:04:45.370Z,54.42
2022-08-22T09:05:45.329Z,54.22
2022-08-22T09:06:50.798Z,53.45
2022-08-22T09:07:45.286Z,54.05
2022-08-22T09:08:45.291Z,54.17
2022-08-22T09:09:45.289Z,53.58
2022-08-22T09:10:45.265Z,53.65
2022-08-22T09:11:45.244Z,53.78
2022-08-22T09:12:59.759Z,53.67
2022-08-22T09:13:46.266Z,53.58
2022-08-22T09:14:45.205Z,53.78
2022-08-22T09:15:58.534Z,52.96
2022-08-22T09:16:48.140Z,52.86
2022-08-22T09:17:46.202Z,53.48
2022-08-22T09:18:45.177Z,53.18
2022-08-22T09:19:45.166Z,54.05
2022-08-22T09:20:45.155Z,53.85
2022-08-22T09:21:45.167Z,52.98
2022-08-22T09:22:50.003Z,53.35
2022-08-22T09:23:46.120Z,53.13
2022-08-22T09:24:46.129Z,52.14
2022-08-22T09:25:45.110Z,53.30
2022-08-22T09:26:45.097Z,51.32
2022-08-22T09:27:45.082Z,51.20
2022-08-22T09:28:45.071Z,52.58
2022-08-22T09:29:51.424Z,52.36
2022-08-22T09:30:46.058Z,51.00
2022-08-22T09:31:47.921Z,51.30
2022-08-22T09:32:46.030Z,51.82
2022-08-22T09:33:45.036Z,51.82
2022-08-22T09:34:44.996Z,50.93
2022-08-22T09:35:45.007Z,50.93
2022-08-22T09:36:45.007Z,50.83
2022-08-22T09:37:44.985Z,50.71
2022-08-22T09:38:47.734Z,50.63
2022-08-22T09:39:44.983Z,51.59
2022-08-22T09:40:44.980Z,51.50
2022-08-22T09:41:44.931Z,50.81
2022-08-22T09:42:46.396Z,51.20
2022-08-22T09:43:45.189Z,51.30
2022-08-22T09:44:44.932Z,50.81
2022-08-22T09:45:44.894Z,50.90
2022-08-22T09:46:44.873Z,50.90
2022-08-22T09:47:44.866Z,50.51
2022-08-22T09:48:44.873Z,50.71
2022-08-22T09:49:44.858Z,51.40
2022-08-22T09:50:44.843Z,51.37
2022-08-22T09:51:44.820Z,50.38
2022-08-22T09:52:44.813Z,50.56
2022-08-22T09:53:44.806Z,49.69
2022-08-22T09:54:44.832Z,50.46
2022-08-22T09:55:44.784Z,50.16
2022-08-22T09:56:44.808Z,50.46
2022-08-22T09:57:44.766Z,49.60
2022-08-22T09:58:44.765Z,50.01
2022-08-22T09:59:44.732Z,50.61
2022-08-22T10:00:44.806Z,51.00
2022-08-22T10:01:44.723Z,50.81
2022-08-22T10:02:44.737Z,50.71
2022-08-22T10:03:44.697Z,49.74
2022-08-22T10:04:44.679Z,51.13
2022-08-22T10:05:44.944Z,50.63
2022-08-22T10:06:44.661Z,51.13
2022-08-22T10:07:44.663Z,50.51
2022-08-22T10:08:45.988Z,50.61
2022-08-22T10:09:46.238Z,51.40
2022-08-22T10:10:44.623Z,51.00
2022-08-22T10:11:44.606Z,50.61
2022-08-22T10:12:44.820Z,50.93
2022-08-22T10:13:44.592Z,50.81
2022-08-22T10:14:50.422Z,50.41
2022-08-22T10:15:45.567Z,50.24
2022-08-22T10:16:44.580Z,49.64
2022-08-22T10:17:44.549Z,49.05
2022-08-22T10:18:52.803Z,50.34
2022-08-22T10:19:45.554Z,50.43
2022-08-22T10:20:44.685Z,50.46
2022-08-22T10:21:44.501Z,50.76
2022-08-22T10:22:44.754Z,50.66
2022-08-22T10:23:44.489Z,50.73
2022-08-22T10:24:44.485Z,50.51
2022-08-22T10:25:44.469Z,49.52
2022-08-22T10:26:44.446Z,49.62
2022-08-22T10:27:44.465Z,49.22
2022-08-22T10:28:44.444Z,49.69
2022-08-22T10:29:44.456Z,50.98
2022-08-22T10:30:44.444Z,50.48
2022-08-22T10:31:58.677Z,50.38
2022-08-22T10:32:45.390Z,50.19
2022-08-22T10:33:44.488Z,50.31
2022-08-22T10:34:44.356Z,50.81
2022-08-22T10:35:44.362Z,50.61
2022-08-22T10:36:44.350Z,50.48
2022-08-22T10:37:46.124Z,50.19
2022-08-22T10:38:46.862Z,48.63
2022-08-22T10:39:44.423Z,49.49
2022-08-22T10:40:44.294Z,49.40
2022-08-22T10:41:45.424Z,50.48
2022-08-22T10:42:44.277Z,49.37
2022-08-22T10:43:44.314Z,49.18
2022-08-22T10:44:44.289Z,49.57
2022-08-22T10:45:44.256Z,49.84
2022-08-22T10:46:44.248Z,49.65
2022-08-22T10:47:44.243Z,49.45
2022-08-22T10:48:44.215Z,50.26
2022-08-22T10:49:44.211Z,49.65
2022-08-22T10:50:44.204Z,49.22
2022-08-22T10:51:44.189Z,48.02
2022-08-22T10:52:44.189Z,49.30
2022-08-22T10:53:44.185Z,47.01
2022-08-22T10:54:44.154Z,47.68
2022-08-22T10:55:44.149Z,45.43
2022-08-22T10:56:44.134Z,47.80
2022-08-22T10:57:44.161Z,47.80
2022-08-22T10:58:44.171Z,46.91
2022-08-22T10:59:44.102Z,47.50
2022-08-22T11:00:46.567Z,47.80
2022-08-22T11:01:45.126Z,47.60
2022-08-22T11:02:44.931Z,47.41
2022-08-22T11:03:44.082Z,48.00
2022-08-22T11:04:44.074Z,46.91
2022-08-22T11:05:44.058Z,45.73
2022-08-22T11:06:45.037Z,47.11
2022-08-22T11:07:44.557Z,47.11
2022-08-22T11:08:44.017Z,47.01
2022-08-22T11:09:44.020Z,47.60
2022-08-22T11:10:43.988Z,47.60
2022-08-22T11:11:43.978Z,48.22
2022-08-22T11:12:44.562Z,47.92
2022-08-22T11:13:43.967Z,46.37
2022-08-22T11:14:44.784Z,47.45
2022-08-22T11:15:43.941Z,47.65
2022-08-22T11:16:43.924Z,47.63
2022-08-22T11:17:51.064Z,46.64
2022-08-22T11:18:44.972Z,45.93
2022-08-22T11:19:44.928Z,45.63
2022-08-22T11:20:43.876Z,45.93
2022-08-22T11:21:43.862Z,45.43
2022-08-22T11:22:43.858Z,46.20
2022-08-22T11:23:43.844Z,47.19
2022-08-22T11:24:46.507Z,45.29
2022-08-22T11:25:44.840Z,45.39
2022-08-22T11:26:47.004Z,46.18
2022-08-22T11:27:43.800Z,46.67
2022-08-22T11:28:43.797Z,45.56
2022-08-22T11:29:44.248Z,45.47
2022-08-22T11:30:44.109Z,44.66
2022-08-22T11:31:51.687Z,45.17
2022-08-22T11:32:44.747Z,44.48
2022-08-22T11:33:46.437Z,46.23
2022-08-22T11:34:44.844Z,45.72
2022-08-22T11:35:43.712Z,44.73
2022-08-22T11:36:46.351Z,43.65
2022-08-22T11:37:43.981Z,43.65
2022-08-22T11:38:43.692Z,44.24
2022-08-22T11:39:43.722Z,45.30
2022-08-22T11:40:43.664Z,44.40
2022-08-22T11:41:43.675Z,43.93
2022-08-22T11:42:47.469Z,44.40
2022-08-22T11:43:43.659Z,43.32
2022-08-22T11:44:50.886Z,43.12
2022-08-22T11:45:44.612Z,42.72
2022-08-22T11:46:43.607Z,42.65
2022-08-22T11:47:43.601Z,43.48
2022-08-22T11:48:48.548Z,45.15
2022-08-22T11:49:43.572Z,43.70
2022-08-22T11:50:43.565Z,44.19
2022-08-22T11:51:43.548Z,45.47
2022-08-22T11:52:43.549Z,44.80
2022-08-22T11:53:44.596Z,45.27
2022-08-22T11:54:43.519Z,45.47
2022-08-22T11:55:43.515Z,45.74
2022-08-22T11:56:43.503Z,44.93
2022-08-22T11:57:44.827Z,44.34
2022-08-22T11:58:43.482Z,43.36
2022-08-22T11:59:43.491Z,43.36
2022-08-22T12:00:43.458Z,43.26
2022-08-22T12:01:43.518Z,43.46
2022-08-22T12:02:43.442Z,43.36
2022-08-22T12:03:43.423Z,43.55
2022-08-22T12:04:44.049Z,43.04
2022-08-22T12:05:43.479Z,43.63
2022-08-22T12:06:43.412Z,43.53
2022-08-22T12:07:47.383Z,42.67
2022-08-22T12:08:44.390Z,42.86
2022-08-22T12:09:43.368Z,44.64
2022-08-22T12:10:43.354Z,42.77
2022-08-22T12:11:43.375Z,43.55
2022-08-22T12:12:43.330Z,43.63
2022-08-22T12:13:43.325Z,43.63
2022-08-22T12:14:43.323Z,43.73
2022-08-22T12:15:43.301Z,42.55
2022-08-22T12:16:44.972Z,43.16
2022-08-22T12:17:55.350Z,43.65
2022-08-22T12:18:44.263Z,43.43
2022-08-22T12:20:05.755Z,43.55
2022-08-22T12:20:45.534Z,43.46
2022-08-22T12:21:43.241Z,43.63
2022-08-22T12:22:48.716Z,44.52
2022-08-22T12:23:49.333Z,43.43
2022-08-22T12:24:43.209Z,43.53
2022-08-22T12:25:44.506Z,42.85
2022-08-22T12:26:43.183Z,42.45
2022-08-22T12:27:47.982Z,42.35
2022-08-22T12:28:43.161Z,43.65
2022-08-22T12:29:44.861Z,43.06
2022-08-22T12:30:43.141Z,42.47
2022-08-22T12:31:43.135Z,43.16
2022-08-22T12:32:43.860Z,43.57
2022-08-22T12:33:43.128Z,43.57
2022-08-22T12:34:43.096Z,43.36
2022-08-22T12:35:43.093Z,43.95
2022-08-22T12:36:43.097Z,44.54
2022-08-22T12:37:52.397Z,42.67
2022-08-22T12:38:44.072Z,42.86
2022-08-22T12:39:43.121Z,42.57
2022-08-22T12:40:43.692Z,43.65
2022-08-22T12:41:46.764Z,43.55
2022-08-22T12:42:43.028Z,42.79
2022-08-22T12:43:43.024Z,43.46
2022-08-22T12:44:43.003Z,43.08
2022-08-22T12:45:43.005Z,43.57
2022-08-22T12:46:46.764Z,44.56
2022-08-22T12:47:42.973Z,43.75
2022-08-22T12:48:42.955Z,43.26
2022-08-22T12:49:49.837Z,42.86
2022-08-22T12:50:43.955Z,43.16
2022-08-22T12:51:42.919Z,43.06
2022-08-22T12:52:44.342Z,42.77
2022-08-22T12:53:42.906Z,43.77
2022-08-22T12:54:42.907Z,43.68
2022-08-22T12:55:42.923Z,44.17
2022-08-22T12:56:47.360Z,43.87
2022-08-22T12:57:42.867Z,43.97
2022-08-22T12:58:42.868Z,43.06
2022-08-22T12:59:42.844Z,42.18
2022-08-22T13:00:42.911Z,41.69
2022-08-22T13:01:43.596Z,42.30
2022-08-22T13:02:42.810Z,42.89
2022-08-22T13:03:42.815Z,42.59
2022-08-22T13:04:42.834Z,43.48
2022-08-22T13:05:42.811Z,42.79
2022-08-22T13:06:42.763Z,42.38
2022-08-22T13:07:43.760Z,42.96
2022-08-22T13:08:42.759Z,42.20
2022-08-22T13:09:43.293Z,43.36
2022-08-22T13:10:42.739Z,43.48
2022-08-22T13:11:42.720Z,42.79
2022-08-22T13:12:44.078Z,42.59
2022-08-22T13:13:42.705Z,42.99
2022-08-22T13:14:43.711Z,42.91
2022-08-22T13:15:42.686Z,42.69
2022-08-22T13:16:48.657Z,42.79
2022-08-22T13:17:43.651Z,42.79
2022-08-22T13:18:44.745Z,43.38
2022-08-22T13:19:42.625Z,43.08
2022-08-22T13:20:43.393Z,43.18
2022-08-22T13:21:42.624Z,42.59
2022-08-22T13:22:45.546Z,42.89
2022-08-22T13:23:42.613Z,42.79
2022-08-22T13:24:52.333Z,42.52
2022-08-22T13:25:43.575Z,43.38
2022-08-22T13:26:43.368Z,42.89
2022-08-22T13:27:51.102Z,43.38
2022-08-22T13:28:43.535Z,42.40
2022-08-22T13:29:42.899Z,42.89
2022-08-22T13:30:42.525Z,42.00
2022-08-22T13:31:42.537Z,42.49
2022-08-22T13:32:44.486Z,42.79
2022-08-22T13:33:42.508Z,42.89
2022-08-22T13:34:43.680Z,43.28
2022-08-22T13:35:51.611Z,43.16
2022-08-22T13:36:43.473Z,43.75
2022-08-22T13:37:42.448Z,42.94
2022-08-22T13:38:46.405Z,42.55
2022-08-22T13:39:42.483Z,41.77
2022-08-22T13:40:42.433Z,42.45
2022-08-22T13:41:44.316Z,42.35
2022-08-22T13:42:42.388Z,41.74
2022-08-22T13:43:42.380Z,40.29
2022-08-22T13:44:42.389Z,41.56
2022-08-22T13:45:42.370Z,41.56
2022-08-22T13:47:10.817Z,41.78
2022-08-22T13:47:43.369Z,42.18
2022-08-22T13:48:42.334Z,43.36
2022-08-22T13:49:42.317Z,42.00
2022-08-22T13:50:53.920Z,42.59
2022-08-22T13:51:43.337Z,43.28
2022-08-22T13:52:42.283Z,43.87
2022-08-22T13:53:49.374Z,43.57
2022-08-22T13:54:43.289Z,43.01
2022-08-22T13:55:42.991Z,43.97
2022-08-22T13:56:47.129Z,42.59
2022-08-22T13:57:43.237Z,41.90
2022-08-22T13:58:42.225Z,40.64
2022-08-22T13:59:51.066Z,41.73
2022-08-22T14:00:48.742Z,41.83
2022-08-22T14:01:43.291Z,42.81
2022-08-22T14:02:43.536Z,42.71
2022-08-22T14:03:42.196Z,43.20
2022-08-22T14:04:42.163Z,43.60
2022-08-22T14:05:42.174Z,44.40
2022-08-22T14:06:43.994Z,44.31
2022-08-22T14:07:42.132Z,44.98
2022-08-22T14:08:45.997Z,42.81
2022-08-22T14:09:42.134Z,43.62
2022-08-22T14:10:42.109Z,44.01
2022-08-22T14:11:42.121Z,43.52
2022-08-22T14:12:50.011Z,43.23
2022-08-22T14:13:43.072Z,42.85
2022-08-22T14:14:42.064Z,43.74
2022-08-22T14:15:45.656Z,44.13
2022-08-22T14:16:42.056Z,43.74
2022-08-22T14:17:42.833Z,44.62
2022-08-22T14:18:45.620Z,45.12
2022-08-22T14:19:52.853Z,46.10
2022-08-22T14:20:43.013Z,45.31
2022-08-22T14:21:41.988Z,45.71
2022-08-22T14:22:41.997Z,45.51
2022-08-22T14:23:42.009Z,45.21
2022-08-22T14:24:45.609Z,45.49
2022-08-22T14:25:41.958Z,45.39
2022-08-22T14:26:47.256Z,45.29
2022-08-22T14:27:42.934Z,45.29
2022-08-22T14:28:41.958Z,45.90
2022-08-22T14:29:41.931Z,45.31
2022-08-22T14:30:41.903Z,44.80
2022-08-22T14:31:41.881Z,44.82
2022-08-22T14:32:42.044Z,45.00
2022-08-22T14:33:41.875Z,44.62
2022-08-22T14:34:41.893Z,45.12
2022-08-22T14:35:41.845Z,44.92
2022-08-22T14:36:41.850Z,45.02
2022-08-22T14:37:41.832Z,45.81
2022-08-22T14:38:46.167Z,45.71
2022-08-22T14:39:42.876Z,46.00
2022-08-22T14:40:41.793Z,45.51
2022-08-22T14:41:56.149Z,46.20
2022-08-22T14:42:44.399Z,45.51
2022-08-22T14:43:41.758Z,44.43
2022-08-22T14:44:41.768Z,44.82
2022-08-22T14:45:41.739Z,45.02
2022-08-22T14:46:41.785Z,46.00
2022-08-22T14:47:55.563Z,45.63
2022-08-22T14:48:42.907Z,44.94
2022-08-22T14:49:41.694Z,45.93
2022-08-22T14:50:42.248Z,45.81
2022-08-22T14:51:41.672Z,45.02
2022-08-22T14:52:41.685Z,45.73
2022-08-22T14:53:41.647Z,45.63
2022-08-22T14:54:42.697Z,45.04
2022-08-22T14:55:41.630Z,45.14
2022-08-22T14:56:41.641Z,46.12
2022-08-22T14:57:41.632Z,45.34
2022-08-22T14:58:41.617Z,46.03
2022-08-22T14:59:41.612Z,45.63
2022-08-22T15:00:41.606Z,44.94
2022-08-22T15:01:41.605Z,45.34
2022-08-22T15:02:41.556Z,46.03
2022-08-22T15:03:41.568Z,45.73
2022-08-22T15:04:41.591Z,45.04
2022-08-22T15:05:44.954Z,46.03
2022-08-22T15:06:47.745Z,45.14
2022-08-22T15:07:42.514Z,45.73
2022-08-22T15:08:42.302Z,45.12
2022-08-22T15:09:41.644Z,45.71
2022-08-22T15:10:42.386Z,45.71
2022-08-22T15:11:42.220Z,44.92
2022-08-22T15:12:41.457Z,45.51
2022-08-22T15:13:41.465Z,45.51
2022-08-22T15:14:41.429Z,45.61
2022-08-22T15:15:52.901Z,45.12
2022-08-22T15:16:42.421Z,45.02
2022-08-22T15:17:43.982Z,46.20
2022-08-22T15:18:41.397Z,45.71
2022-08-22T15:19:42.370Z,45.51
2022-08-22T15:20:49.149Z,43.74
2022-08-22T15:21:42.361Z,44.53
2022-08-22T15:22:41.340Z,45.61
2022-08-22T15:23:44.978Z,44.82
2022-08-22T15:24:42.868Z,45.51
2022-08-22T15:25:41.328Z,45.41
2022-08-22T15:26:41.290Z,44.92
2022-08-22T15:27:41.296Z,45.12
2022-08-22T15:28:52.583Z,45.02
2022-08-22T15:29:42.265Z,45.59
2022-08-22T15:30:44.454Z,43.62
2022-08-22T15:31:41.564Z,43.24
2022-08-22T15:32:42.234Z,43.64
2022-08-22T15:33:43.250Z,43.64
2022-08-22T15:34:41.210Z,43.93
2022-08-22T15:35:41.195Z,43.84
2022-08-22T15:36:41.239Z,43.34
2022-08-22T15:37:41.169Z,43.34
2022-08-22T15:38:42.109Z,44.92
2022-08-22T15:39:42.189Z,44.82
2022-08-22T15:40:41.139Z,45.02
2022-08-22T15:41:41.142Z,45.12
2022-08-22T15:42:41.120Z,45.21
2022-08-22T15:43:41.107Z,43.71
2022-08-22T15:44:44.190Z,44.03
2022-08-22T15:45:41.114Z,43.64
2022-08-22T15:46:41.083Z,43.34
2022-08-22T15:47:41.062Z,43.24
2022-08-22T15:48:41.082Z,43.93
2022-08-22T15:49:41.064Z,43.34
2022-08-22T15:50:41.930Z,43.34
2022-08-22T15:51:41.033Z,42.95
2022-08-22T15:52:41.021Z,42.85
2022-08-22T15:53:41.048Z,43.27
2022-08-22T15:54:46.918Z,43.64
2022-08-22T15:55:42.003Z,43.93
2022-08-22T15:56:41.728Z,42.97
2022-08-22T15:57:40.973Z,42.95
2022-08-22T15:58:48.599Z,43.64
2022-08-22T15:59:53.603Z,44.35
2022-08-22T16:00:44.836Z,44.45
2022-08-22T16:01:41.000Z,44.45
2022-08-22T16:02:40.912Z,44.74
2022-08-22T16:03:40.905Z,44.25
2022-08-22T16:04:40.910Z,44.94
2022-08-22T16:05:40.880Z,45.14
2022-08-22T16:06:42.518Z,45.04
2022-08-22T16:07:40.859Z,44.65
2022-08-22T16:08:40.843Z,44.96
2022-08-22T16:09:42.724Z,45.63
2022-08-22T16:10:40.823Z,45.56
2022-08-22T16:11:40.821Z,45.75
2022-08-22T16:12:40.808Z,45.46
2022-08-22T16:13:40.835Z,44.98
2022-08-22T16:14:40.774Z,45.18
2022-08-22T16:15:40.776Z,45.08
2022-08-22T16:16:40.760Z,45.78
2022-08-22T16:17:40.745Z,45.78
2022-08-22T16:18:40.741Z,45.78
2022-08-22T16:19:40.739Z,45.38
2022-08-22T16:20:40.720Z,45.50
2022-08-22T16:21:40.703Z,46.29
2022-08-22T16:22:44.529Z,46.19
2022-08-22T16:23:41.730Z,47.47
2022-08-22T16:24:40.672Z,46.88
2022-08-22T16:25:40.665Z,45.40
2022-08-22T16:26:40.649Z,45.89
2022-08-22T16:27:40.642Z,47.67
2022-08-22T16:28:57.985Z,46.09
2022-08-22T16:29:41.918Z,45.40
2022-08-22T16:30:40.607Z,45.50
2022-08-22T16:31:40.613Z,47.08
2022-08-22T16:32:40.607Z,46.69
2022-08-22T16:33:40.614Z,46.81
2022-08-22T16:34:40.579Z,47.79
2022-08-22T16:35:40.581Z,47.30
2022-08-22T16:36:40.572Z,46.51
2022-08-22T16:37:40.544Z,46.51
2022-08-22T16:38:40.526Z,47.20
2022-08-22T16:39:40.582Z,47.79
2022-08-22T16:40:40.511Z,46.91
2022-08-22T16:41:40.560Z,47.60
2022-08-22T16:42:40.502Z,47.50
2022-08-22T16:43:40.483Z,48.09
2022-08-22T16:44:41.483Z,49.27
2022-08-22T16:45:40.470Z,47.50
2022-08-22T16:46:40.451Z,48.58
2022-08-22T16:47:40.470Z,47.40
2022-08-22T16:48:40.460Z,47.62
2022-08-22T16:49:40.444Z,47.40
2022-08-22T16:50:40.412Z,45.94
2022-08-22T16:51:40.495Z,47.62
2022-08-22T16:52:40.398Z,47.52
2022-08-22T16:53:45.848Z,47.62
2022-08-22T16:54:40.373Z,47.81
2022-08-22T16:55:40.357Z,48.90
2022-08-22T16:56:40.356Z,50.19
2022-08-22T16:57:50.579Z,47.13
2022-08-22T16:58:56.893Z,48.51
2022-08-22T16:59:41.316Z,47.52
2022-08-22T17:00:40.303Z,49.20
2022-08-22T17:01:40.443Z,49.32
2022-08-22T17:02:40.286Z,50.71
2022-08-22T17:03:40.302Z,49.62
2022-08-22T17:04:40.270Z,47.54
2022-08-22T17:05:40.289Z,49.82
2022-08-22T17:06:40.262Z,49.91
2022-08-22T17:07:40.233Z,51.00
2022-08-22T17:08:40.217Z,50.71
2022-08-22T17:09:40.207Z,51.10
2022-08-22T17:10:40.225Z,50.71
2022-08-22T17:11:40.197Z,50.81
2022-08-22T17:12:40.179Z,49.13
2022-08-22T17:13:40.172Z,49.74
2022-08-22T17:14:40.155Z,49.44
2022-08-22T17:15:40.144Z,48.65
2022-08-22T17:16:40.162Z,47.86
2022-08-22T17:17:40.123Z,49.54
2022-08-22T17:18:40.113Z,50.53